createdAt,value
2019-02-15T00:01:06.110Z,61.20
2019-02-15T00:03:35.562Z,61.70
2019-02-15T00:06:04.539Z,61.80
2019-02-15T00:08:33.846Z,60.70
2019-02-15T00:11:02.919Z,60.30
2019-02-15T00:13:31.963Z,61.50
2019-02-15T00:16:01.089Z,62.00
2019-02-15T00:18:45.670Z,62.50
2019-02-15T00:21:37.037Z,63.10
2019-02-15T00:24:06.109Z,63.50
2019-02-15T00:26:35.146Z,63.60
2019-02-15T00:29:04.487Z,64.30
2019-02-15T00:31:33.551Z,64.50
2019-02-15T00:34:02.763Z,64.50
2019-02-15T00:36:32.469Z,64.80
2019-02-15T00:39:01.442Z,65.10
2019-02-15T00:41:30.666Z,65.20
2019-02-15T00:44:00.344Z,65.20
2019-02-15T00:46:51.366Z,65.40
2019-02-15T00:49:30.860Z,65.70
2019-02-15T00:52:31.219Z,65.80
2019-02-15T00:55:15.312Z,65.90
2019-02-15T00:58:21.811Z,65.90
2019-02-15T01:00:57.119Z,66.00
2019-02-15T01:03:44.505Z,66.00
2019-02-15T01:06:34.738Z,66.10
2019-02-15T01:09:28.550Z,66.10
2019-02-15T01:12:07.871Z,66.20
2019-02-15T01:14:36.935Z,66.20
2019-02-15T01:17:06.313Z,66.20
2019-02-15T01:19:35.628Z,66.30
2019-02-15T01:22:04.670Z,66.30
2019-02-15T01:24:33.664Z,66.40
2019-02-15T01:27:16.210Z,66.30
2019-02-15T01:30:16.286Z,66.40
2019-02-15T01:32:57.122Z,66.60
2019-02-15T01:35:45.270Z,66.60
2019-02-15T01:38:36.578Z,66.40
2019-02-15T01:41:17.782Z,66.50
2019-02-15T01:44:09.282Z,66.40
2019-02-15T01:46:43.746Z,66.50
2019-02-15T01:49:13.088Z,66.50
2019-02-15T01:51:42.147Z,66.70
2019-02-15T01:54:11.213Z,67.40
2019-02-15T01:56:40.538Z,66.50
2019-02-15T01:59:09.599Z,66.50
2019-02-15T02:01:38.671Z,66.70
2019-02-15T02:04:08.585Z,66.60
2019-02-15T02:06:38.195Z,66.50
2019-02-15T02:09:07.499Z,66.60
2019-02-15T02:11:36.501Z,66.70
2019-02-15T02:14:05.476Z,67.30
2019-02-15T02:16:34.577Z,66.60
2019-02-15T02:19:03.850Z,66.40
2019-02-15T02:21:32.971Z,66.40
2019-02-15T02:24:02.097Z,66.30
2019-02-15T02:26:31.453Z,66.50
2019-02-15T02:29:00.554Z,66.50
2019-02-15T02:31:29.633Z,66.40
2019-02-15T02:33:58.786Z,66.50
2019-02-15T02:36:48.421Z,66.70
2019-02-15T02:39:18.174Z,66.50
2019-02-15T02:41:47.334Z,66.60
2019-02-15T02:44:16.461Z,66.60
2019-02-15T02:46:46.332Z,66.60
2019-02-15T02:49:15.376Z,66.80
2019-02-15T02:51:44.548Z,66.60
2019-02-15T02:54:13.673Z,66.60
2019-02-15T02:56:42.797Z,66.60
2019-02-15T02:59:11.843Z,66.60
2019-02-15T03:01:40.962Z,66.60
2019-02-15T03:04:10.249Z,66.50
2019-02-15T03:06:39.929Z,66.50
2019-02-15T03:09:10.326Z,66.40
2019-02-15T03:11:39.456Z,66.50
2019-02-15T03:14:11.276Z,66.60
2019-02-15T03:16:39.484Z,66.60
2019-02-15T03:19:08.629Z,66.50
2019-02-15T03:21:37.842Z,66.50
2019-02-15T03:24:07.040Z,66.40
2019-02-15T03:26:36.251Z,66.50
2019-02-15T03:29:05.418Z,66.40
2019-02-15T03:31:34.913Z,66.40
2019-02-15T03:34:04.060Z,66.40
2019-02-15T03:36:51.444Z,66.60
2019-02-15T03:39:42.759Z,66.40
2019-02-15T03:42:14.649Z,66.40
2019-02-15T03:44:43.823Z,66.20
2019-02-15T03:47:14.646Z,66.20
2019-02-15T03:49:43.975Z,66.30
2019-02-15T03:52:13.153Z,66.30
2019-02-15T03:54:42.593Z,66.30
2019-02-15T03:57:12.175Z,66.30
2019-02-15T03:59:41.363Z,66.30
2019-02-15T04:02:10.427Z,66.20
2019-02-15T04:04:39.626Z,66.40
2019-02-15T04:07:09.458Z,66.70
2019-02-15T04:09:39.219Z,66.60
2019-02-15T04:12:08.524Z,66.40
2019-02-15T04:14:37.678Z,66.40
2019-02-15T04:17:06.811Z,66.20
2019-02-15T04:19:36.198Z,66.20
2019-02-15T04:22:05.703Z,66.40
2019-02-15T04:24:34.792Z,66.60
2019-02-15T04:27:04.050Z,66.50
2019-02-15T04:29:33.184Z,66.30
2019-02-15T04:32:02.426Z,67.10
2019-02-15T04:34:33.870Z,66.40
2019-02-15T04:37:03.182Z,66.40
2019-02-15T04:39:32.438Z,66.20
2019-02-15T04:42:02.098Z,66.20
2019-02-15T04:44:31.510Z,66.60
2019-02-15T04:47:00.814Z,66.40
2019-02-15T04:49:30.650Z,66.20
2019-02-15T04:52:00.060Z,66.20
2019-02-15T04:54:29.294Z,66.20
2019-02-15T04:56:58.735Z,66.20
2019-02-15T04:59:27.928Z,66.20
2019-02-15T05:01:57.188Z,66.40
2019-02-15T05:04:26.637Z,66.10
2019-02-15T05:06:56.439Z,66.30
2019-02-15T05:09:25.464Z,66.30
2019-02-15T05:11:55.315Z,66.30
2019-02-15T05:14:24.536Z,66.20
2019-02-15T05:16:53.720Z,66.40
2019-02-15T05:19:23.118Z,66.40
2019-02-15T05:21:52.206Z,66.50
2019-02-15T05:24:21.361Z,66.40
2019-02-15T05:26:50.611Z,66.10
2019-02-15T05:29:19.843Z,66.20
2019-02-15T05:31:48.957Z,66.30
2019-02-15T05:34:18.536Z,65.90
2019-02-15T05:36:47.700Z,66.20
2019-02-15T05:39:16.840Z,66.00
2019-02-15T05:41:46.778Z,66.10
2019-02-15T05:44:16.365Z,66.20
2019-02-15T05:46:45.665Z,66.10
2019-02-15T05:49:15.232Z,66.80
2019-02-15T05:51:53.726Z,66.10
2019-02-15T05:54:23.334Z,66.00
2019-02-15T05:56:52.354Z,66.30
2019-02-15T05:59:21.508Z,66.20
2019-02-15T06:01:50.954Z,66.20
2019-02-15T06:04:20.338Z,66.30
2019-02-15T06:06:49.966Z,66.20
2019-02-15T06:09:19.460Z,66.10
2019-02-15T06:11:48.453Z,66.00
2019-02-15T06:14:17.514Z,65.90
2019-02-15T06:16:46.572Z,65.80
2019-02-15T06:19:15.632Z,66.10
2019-02-15T06:21:44.701Z,65.90
2019-02-15T06:24:14.023Z,65.80
2019-02-15T06:26:43.039Z,65.90
2019-02-15T06:29:12.090Z,65.80
2019-02-15T06:31:41.735Z,65.90
2019-02-15T06:34:10.789Z,65.90
2019-02-15T06:36:39.924Z,65.90
2019-02-15T06:39:09.618Z,65.80
2019-02-15T06:41:38.684Z,65.90
2019-02-15T06:44:07.754Z,65.90
2019-02-15T06:46:38.131Z,65.80
2019-02-15T06:49:07.191Z,65.80
2019-02-15T06:51:36.245Z,65.80
2019-02-15T06:54:05.668Z,65.50
2019-02-15T06:56:34.730Z,65.50
2019-02-15T06:59:21.403Z,65.40
2019-02-15T07:02:08.182Z,65.50
2019-02-15T07:05:14.843Z,65.50
2019-02-15T07:07:44.289Z,65.40
2019-02-15T07:10:13.342Z,65.40
2019-02-15T07:12:42.272Z,65.40
2019-02-15T07:15:11.334Z,65.40
2019-02-15T07:17:40.389Z,65.40
2019-02-15T07:20:10.589Z,65.30
2019-02-15T07:22:39.650Z,65.30
2019-02-15T07:25:09.498Z,65.40
2019-02-15T07:27:38.802Z,65.40
2019-02-15T07:30:09.875Z,65.30
2019-02-15T07:32:38.926Z,65.20
2019-02-15T07:35:08.396Z,65.10
2019-02-15T07:37:37.411Z,65.00
2019-02-15T07:40:06.534Z,65.00
2019-02-15T07:42:36.230Z,65.00
2019-02-15T07:45:05.665Z,64.90
2019-02-15T07:47:34.635Z,64.90
2019-02-15T07:50:04.326Z,64.80
2019-02-15T07:52:33.379Z,64.70
2019-02-15T07:55:02.446Z,64.80
2019-02-15T07:57:31.377Z,64.70
2019-02-15T08:00:00.763Z,64.70
2019-02-15T08:02:30.232Z,64.90
2019-02-15T08:05:00.219Z,64.80
2019-02-15T08:07:29.935Z,65.50
2019-02-15T08:09:59.003Z,64.80
2019-02-15T08:12:28.004Z,64.80
2019-02-15T08:14:57.049Z,64.40
2019-02-15T08:17:26.191Z,62.60
2019-02-15T08:19:55.962Z,61.30
2019-02-15T08:22:25.099Z,59.90
2019-02-15T08:24:54.265Z,57.70
2019-02-15T08:27:23.359Z,55.90
2019-02-15T08:29:52.473Z,54.60
2019-02-15T08:32:21.553Z,54.40
2019-02-15T08:34:50.693Z,53.40
2019-02-15T08:37:19.639Z,52.70
2019-02-15T08:39:48.661Z,52.60
2019-02-15T08:42:18.179Z,51.00
2019-02-15T08:44:47.353Z,50.70
2019-02-15T08:47:16.355Z,50.20
2019-02-15T08:49:45.536Z,50.00
2019-02-15T08:52:14.571Z,49.90
2019-02-15T08:54:43.895Z,49.20
2019-02-15T08:57:13.369Z,48.90
2019-02-15T08:59:42.345Z,49.20
2019-02-15T09:02:18.694Z,49.00
2019-02-15T09:04:47.691Z,48.80
2019-02-15T09:07:17.326Z,48.70
2019-02-15T09:09:46.290Z,48.60
2019-02-15T09:12:15.338Z,48.80
2019-02-15T09:14:44.318Z,49.10
2019-02-15T09:17:13.375Z,49.00
2019-02-15T09:19:42.413Z,48.90
2019-02-15T09:22:11.883Z,49.00
2019-02-15T09:24:40.945Z,48.80
2019-02-15T09:27:32.030Z,48.70
2019-02-15T09:30:01.075Z,49.60
2019-02-15T09:32:30.142Z,49.60
2019-02-15T09:34:59.159Z,49.50
2019-02-15T09:37:28.205Z,49.60
2019-02-15T09:39:57.751Z,49.80
2019-02-15T09:42:27.163Z,50.20
2019-02-15T09:44:56.226Z,50.00
2019-02-15T09:47:25.254Z,50.00
2019-02-15T09:49:54.718Z,50.10
2019-02-15T09:52:23.758Z,50.50
2019-02-15T09:54:52.725Z,51.00
2019-02-15T09:57:22.042Z,51.30
2019-02-15T09:59:51.099Z,51.10
2019-02-15T10:02:20.162Z,50.70
2019-02-15T10:04:49.246Z,50.90
2019-02-15T10:07:19.549Z,51.20
2019-02-15T10:09:48.596Z,51.30
2019-02-15T10:12:17.636Z,51.50
2019-02-15T10:14:46.730Z,51.40
2019-02-15T10:17:15.685Z,51.20
2019-02-15T10:19:44.647Z,51.40
2019-02-15T10:22:13.901Z,52.00
2019-02-15T10:24:42.876Z,52.20
2019-02-15T10:27:11.924Z,52.70
2019-02-15T10:29:40.992Z,54.00
2019-02-15T10:32:10.040Z,54.30
2019-02-15T10:34:39.082Z,54.80
2019-02-15T10:37:08.369Z,55.10
2019-02-15T10:39:37.330Z,55.30
2019-02-15T10:42:06.445Z,55.40
2019-02-15T10:44:35.961Z,55.10
2019-02-15T10:47:13.574Z,55.10
2019-02-15T10:49:35.758Z,55.20
2019-02-15T10:52:05.402Z,55.40
2019-02-15T10:54:34.451Z,55.20
2019-02-15T10:57:03.496Z,55.60
2019-02-15T10:59:32.483Z,55.80
2019-02-15T11:02:01.512Z,55.90
2019-02-15T11:04:30.552Z,56.00
2019-02-15T11:06:59.736Z,56.00
2019-02-15T11:09:29.414Z,56.20
2019-02-15T11:11:58.500Z,56.50
2019-02-15T11:14:27.518Z,56.60
2019-02-15T11:16:56.490Z,56.70
2019-02-15T11:19:25.537Z,56.70
2019-02-15T11:21:54.748Z,57.00
2019-02-15T11:24:23.795Z,57.10
2019-02-15T11:26:52.848Z,57.10
2019-02-15T11:29:21.849Z,57.10
2019-02-15T11:31:50.884Z,57.20
2019-02-15T11:34:19.922Z,57.30
2019-02-15T11:36:48.918Z,57.40
2019-02-15T11:39:17.883Z,57.80
2019-02-15T11:41:46.855Z,57.90
2019-02-15T11:44:16.539Z,58.00
2019-02-15T11:46:45.587Z,58.20
2019-02-15T11:49:14.704Z,58.00
2019-02-15T11:51:43.983Z,58.10
2019-02-15T11:54:13.351Z,58.00
2019-02-15T11:56:42.382Z,58.70
2019-02-15T11:59:11.372Z,58.50
2019-02-15T12:01:40.508Z,58.70
2019-02-15T12:04:09.543Z,58.70
2019-02-15T12:06:39.252Z,58.70
2019-02-15T12:09:09.031Z,59.10
2019-02-15T12:11:38.078Z,59.30
2019-02-15T12:14:07.457Z,59.30
2019-02-15T12:16:38.114Z,59.20
2019-02-15T12:19:07.195Z,59.50
2019-02-15T12:21:36.249Z,59.20
2019-02-15T12:24:05.287Z,59.70
2019-02-15T12:26:34.339Z,59.90
2019-02-15T12:29:03.389Z,59.90
2019-02-15T12:31:32.358Z,59.80
2019-02-15T12:34:01.314Z,59.90
2019-02-15T12:36:30.857Z,60.20
2019-02-15T12:38:59.826Z,60.50
2019-02-15T12:41:28.880Z,60.20
2019-02-15T12:43:58.743Z,60.00
2019-02-15T12:46:27.787Z,60.40
2019-02-15T12:48:56.742Z,61.00
2019-02-15T12:51:26.023Z,61.10
2019-02-15T12:53:55.067Z,61.00
2019-02-15T12:56:24.098Z,61.20
2019-02-15T12:58:53.077Z,61.40
2019-02-15T13:01:22.040Z,61.40
2019-02-15T13:03:50.998Z,61.20
2019-02-15T13:06:28.349Z,61.40
2019-02-15T13:08:52.348Z,61.40
2019-02-15T13:11:21.402Z,62.40
2019-02-15T13:13:50.457Z,62.30
2019-02-15T13:16:19.464Z,62.60
2019-02-15T13:18:48.510Z,62.80
2019-02-15T13:21:17.551Z,62.90
2019-02-15T13:23:47.042Z,62.60
2019-02-15T13:26:16.242Z,62.80
2019-02-15T13:28:45.439Z,63.50
2019-02-15T13:31:15.423Z,63.30
2019-02-15T13:33:44.467Z,63.40
2019-02-15T13:36:14.313Z,63.50
2019-02-15T13:38:43.302Z,64.10
2019-02-15T13:41:12.357Z,64.70
2019-02-15T13:43:41.410Z,64.40
2019-02-15T13:46:10.914Z,64.00
2019-02-15T13:48:39.974Z,63.80
2019-02-15T13:51:09.023Z,63.70
2019-02-15T13:53:38.090Z,63.80
2019-02-15T13:56:07.147Z,63.80
2019-02-15T13:58:36.199Z,63.50
2019-02-15T14:01:05.809Z,63.80
2019-02-15T14:03:34.777Z,63.80
2019-02-15T14:06:03.750Z,63.70
2019-02-15T14:08:33.075Z,63.80
2019-02-15T14:11:02.574Z,63.80
2019-02-15T14:13:31.643Z,63.70
2019-02-15T14:16:00.771Z,63.70
2019-02-15T14:18:29.797Z,64.00
2019-02-15T14:20:58.855Z,63.80
2019-02-15T14:23:27.918Z,64.00
2019-02-15T14:25:57.140Z,63.70
2019-02-15T14:28:26.196Z,63.90
2019-02-15T14:30:55.311Z,63.90
2019-02-15T14:33:24.830Z,63.80
2019-02-15T14:35:53.874Z,63.90
2019-02-15T14:38:23.107Z,64.00
2019-02-15T14:40:52.090Z,64.30
2019-02-15T14:43:21.078Z,64.30
2019-02-15T14:45:50.122Z,64.30
2019-02-15T14:48:20.154Z,64.40
2019-02-15T14:50:49.254Z,64.30
2019-02-15T14:53:18.150Z,64.10
2019-02-15T14:55:47.213Z,64.90
2019-02-15T14:58:16.170Z,65.60
2019-02-15T15:00:45.222Z,65.70
2019-02-15T15:03:14.304Z,65.70
2019-02-15T15:05:43.340Z,65.70
2019-02-15T15:08:12.399Z,65.50
2019-02-15T15:10:41.598Z,65.90
2019-02-15T15:13:11.079Z,65.80
2019-02-15T15:15:40.227Z,66.00
2019-02-15T15:18:13.319Z,65.90
2019-02-15T15:20:40.169Z,65.80
2019-02-15T15:23:09.171Z,65.90
2019-02-15T15:25:38.485Z,65.90
2019-02-15T15:28:09.233Z,66.00
2019-02-15T15:30:38.326Z,66.00
2019-02-15T15:33:07.414Z,66.20
2019-02-15T15:35:36.386Z,66.20
2019-02-15T15:38:05.577Z,65.80
2019-02-15T15:40:35.530Z,65.70
2019-02-15T15:43:04.532Z,66.10
2019-02-15T15:45:33.578Z,66.10
2019-02-15T15:48:03.118Z,66.40
2019-02-15T15:50:32.251Z,66.30
2019-02-15T15:53:01.223Z,66.10
2019-02-15T15:55:30.801Z,65.60
2019-02-15T15:57:59.990Z,65.50
2019-02-15T16:00:38.416Z,65.60
2019-02-15T16:03:00.248Z,66.50
2019-02-15T16:05:29.301Z,67.00
2019-02-15T16:07:58.366Z,67.90
2019-02-15T16:10:27.448Z,66.90
2019-02-15T16:12:56.818Z,67.00
2019-02-15T16:15:26.142Z,66.80
2019-02-15T16:17:55.155Z,66.80
2019-02-15T16:20:24.211Z,67.10
2019-02-15T16:22:53.272Z,67.10
2019-02-15T16:25:22.398Z,67.40
2019-02-15T16:27:51.457Z,67.60
2019-02-15T16:30:20.575Z,67.70
2019-02-15T16:32:49.795Z,67.90
2019-02-15T16:35:20.613Z,67.80
2019-02-15T16:37:49.876Z,68.50
2019-02-15T16:40:19.116Z,67.90
2019-02-15T16:42:48.340Z,67.60
2019-02-15T16:45:17.395Z,67.40
2019-02-15T16:47:46.605Z,67.20
2019-02-15T16:50:15.646Z,67.20
2019-02-15T16:52:44.701Z,67.00
2019-02-15T16:55:17.957Z,66.90
2019-02-15T16:57:47.328Z,66.70
2019-02-15T17:00:16.579Z,67.00
2019-02-15T17:02:46.287Z,67.20
2019-02-15T17:05:15.407Z,67.20
2019-02-15T17:07:44.474Z,67.10
2019-02-15T17:10:13.559Z,67.40
2019-02-15T17:12:42.756Z,67.30
2019-02-15T17:15:12.450Z,67.40
2019-02-15T17:17:41.544Z,67.50
2019-02-15T17:20:10.536Z,67.40
2019-02-15T17:22:39.600Z,67.30
2019-02-15T17:25:09.287Z,67.40
2019-02-15T17:27:38.322Z,67.50
2019-02-15T17:30:07.940Z,67.50
2019-02-15T17:32:37.320Z,67.40
2019-02-15T17:35:06.979Z,67.20
2019-02-15T17:37:36.028Z,67.20
2019-02-15T17:40:05.914Z,67.20
2019-02-15T17:42:34.946Z,65.50
2019-02-15T17:45:04.022Z,65.50
2019-02-15T17:47:33.278Z,65.40
2019-02-15T17:50:02.367Z,65.50
2019-02-15T17:52:31.365Z,65.60
2019-02-15T17:55:00.434Z,65.80
2019-02-15T17:57:29.488Z,65.80
2019-02-15T17:59:58.705Z,65.70
2019-02-15T18:02:28.123Z,66.10
2019-02-15T18:04:57.175Z,66.00
2019-02-15T18:07:26.237Z,65.90
2019-02-15T18:09:55.225Z,66.00
2019-02-15T18:12:24.566Z,66.20
2019-02-15T18:14:53.906Z,66.30
2019-02-15T18:17:23.145Z,66.50
2019-02-15T18:19:52.262Z,66.50
2019-02-15T18:22:21.327Z,66.60
2019-02-15T18:24:50.414Z,67.10
2019-02-15T18:27:19.507Z,67.40
2019-02-15T18:29:48.558Z,67.30
2019-02-15T18:32:18.284Z,67.60
2019-02-15T18:34:47.385Z,67.80
2019-02-15T18:37:16.462Z,68.20
2019-02-15T18:39:46.256Z,68.30
2019-02-15T18:42:15.330Z,68.40
2019-02-15T18:44:44.503Z,68.50
2019-02-15T18:47:13.813Z,68.70
2019-02-15T18:49:42.902Z,68.90
2019-02-15T18:52:11.949Z,69.40
2019-02-15T18:54:41.010Z,70.40
2019-02-15T18:57:10.075Z,70.00
2019-02-15T18:59:39.155Z,69.10
2019-02-15T19:02:08.543Z,68.40
2019-02-15T19:04:37.750Z,69.20
2019-02-15T19:07:06.821Z,70.20
2019-02-15T19:09:36.240Z,70.60
2019-02-15T19:12:05.606Z,70.10
2019-02-15T19:14:35.406Z,69.50
2019-02-15T19:17:04.657Z,69.20
2019-02-15T19:19:33.712Z,69.00
2019-02-15T19:22:02.858Z,69.10
2019-02-15T19:24:32.269Z,69.40
2019-02-15T19:27:01.340Z,68.40
2019-02-15T19:29:30.382Z,67.60
2019-02-15T19:32:00.170Z,66.70
2019-02-15T19:34:29.414Z,66.70
2019-02-15T19:36:58.596Z,66.20
2019-02-15T19:39:27.721Z,66.40
2019-02-15T19:41:56.774Z,66.40
2019-02-15T19:44:25.848Z,66.60
2019-02-15T19:46:54.887Z,65.50
2019-02-15T19:49:23.874Z,64.90
2019-02-15T19:51:52.942Z,64.60
2019-02-15T19:54:21.990Z,64.40
2019-02-15T19:56:51.077Z,64.30
2019-02-15T19:59:20.275Z,64.50
2019-02-15T20:01:49.589Z,64.80
2019-02-15T20:04:18.655Z,64.80
2019-02-15T20:06:47.711Z,64.60
2019-02-15T20:09:16.775Z,63.30
2019-02-15T20:11:45.765Z,62.60
2019-02-15T20:14:14.890Z,62.60
2019-02-15T20:16:44.500Z,62.60
2019-02-15T20:19:13.550Z,62.80
2019-02-15T20:21:42.714Z,63.80
2019-02-15T20:24:11.797Z,63.70
2019-02-15T20:26:40.854Z,61.90
2019-02-15T20:29:11.530Z,61.00
2019-02-15T20:31:40.814Z,60.40
2019-02-15T20:34:09.870Z,60.50
2019-02-15T20:36:38.938Z,60.70
2019-02-15T20:39:08.734Z,61.50
2019-02-15T20:41:37.782Z,61.50
2019-02-15T20:44:06.965Z,61.30
2019-02-15T20:46:36.504Z,60.20
2019-02-15T20:49:05.561Z,59.60
2019-02-15T20:51:34.546Z,59.60
2019-02-15T20:54:03.662Z,59.90
2019-02-15T20:56:32.710Z,60.00
2019-02-15T20:59:01.776Z,60.90
2019-02-15T21:01:30.932Z,61.30
2019-02-15T21:03:59.916Z,61.10
2019-02-15T21:06:28.894Z,59.70
2019-02-15T21:08:57.893Z,59.00
2019-02-15T21:11:26.913Z,59.10
2019-02-15T21:13:56.154Z,59.40
2019-02-15T21:16:25.841Z,59.50
2019-02-15T21:18:54.898Z,59.70
2019-02-15T21:21:23.970Z,58.60
2019-02-15T21:23:53.063Z,58.10
2019-02-15T21:26:22.114Z,58.00
2019-02-15T21:28:51.163Z,58.10
2019-02-15T21:31:20.670Z,58.50
2019-02-15T21:33:49.736Z,59.00
2019-02-15T21:36:18.806Z,58.20
2019-02-15T21:38:47.955Z,57.90
2019-02-15T21:41:17.016Z,57.70
2019-02-15T21:43:46.067Z,57.80
2019-02-15T21:46:15.537Z,58.20
2019-02-15T21:48:44.602Z,58.40
2019-02-15T21:51:13.639Z,58.20
2019-02-15T21:53:42.915Z,57.50
2019-02-15T21:56:11.894Z,58.20
2019-02-15T21:58:42.762Z,58.00
2019-02-15T22:01:12.357Z,57.80
2019-02-15T22:03:41.428Z,58.30
2019-02-15T22:06:10.487Z,58.60
2019-02-15T22:08:39.606Z,59.30
2019-02-15T22:11:08.567Z,59.50
2019-02-15T22:13:37.652Z,58.40
2019-02-15T22:16:06.927Z,58.00
2019-02-15T22:18:36.714Z,57.90
2019-02-15T22:21:05.803Z,58.10
2019-02-15T22:23:34.914Z,58.40
2019-02-15T22:26:03.971Z,58.90
2019-02-15T22:28:32.958Z,59.20
2019-02-15T22:31:02.102Z,59.60
2019-02-15T22:33:31.906Z,59.90
2019-02-15T22:36:00.970Z,60.10
2019-02-15T22:38:30.519Z,60.50
2019-02-15T22:41:10.162Z,59.60
2019-02-15T22:43:39.377Z,59.10
2019-02-15T22:46:08.338Z,59.00
2019-02-15T22:48:37.397Z,59.10
2019-02-15T22:51:06.730Z,59.80
2019-02-15T22:53:35.782Z,60.10
2019-02-15T22:56:04.836Z,60.20
2019-02-15T22:58:33.867Z,60.50
2019-02-15T23:01:16.810Z,60.50
2019-02-15T23:03:45.902Z,59.50
2019-02-15T23:06:14.958Z,59.20
2019-02-15T23:08:43.926Z,59.50
2019-02-15T23:11:14.981Z,59.70
2019-02-15T23:13:44.147Z,60.40
2019-02-15T23:16:13.193Z,60.50
2019-02-15T23:18:42.368Z,60.40
2019-02-15T23:21:11.859Z,60.60
2019-02-15T23:23:40.911Z,60.90
2019-02-15T23:26:10.021Z,61.70
2019-02-15T23:28:39.050Z,62.30
2019-02-15T23:31:08.083Z,62.40
2019-02-15T23:33:37.175Z,63.40
2019-02-15T23:36:06.222Z,62.90
2019-02-15T23:38:35.259Z,63.30
2019-02-15T23:41:05.933Z,63.50
2019-02-15T23:43:34.983Z,63.60
2019-02-15T23:46:03.954Z,63.60
2019-02-15T23:48:33.199Z,63.80
2019-02-15T23:51:02.247Z,63.80
2019-02-15T23:53:31.218Z,64.00
2019-02-15T23:56:00.314Z,64.30
2019-02-15T23:58:29.357Z,64.50
